Time;durP1;ratioP1;P1;durP2;ratioP2;P2;SDS_P1;SDS_P2;PMS_P1;PMS_P2;Temp;Humidity;BMP_temperature;BMP_pressure;BME280_temperature;BME280_humidity;BME280_pressure;Samples;Min_cycle;Max_cycle;Signal;HPM_P1;HPM_P2
2023/02/07 00:00:12;;;;;;;2.78;1.70;;;17.70;73.30;;;;;;6189520;23;20009;-68
2023/02/07 00:02:41;;;;;;;3.40;1.75;;;17.70;73.30;;;;;;6214540;23;20080;-68
2023/02/07 00:05:07;;;;;;;2.28;1.60;;;17.70;73.30;;;;;;6213819;23;20004;-68
2023/02/07 00:07:32;;;;;;;1.60;1.38;;;17.60;73.30;;;;;;6214071;23;20011;-68
2023/02/07 00:09:58;;;;;;;2.45;1.50;;;17.60;73.30;;;;;;6215611;23;20008;-68
2023/02/07 00:12:24;;;;;;;3.92;1.98;;;17.60;73.40;;;;;;6215772;23;20001;-68
2023/02/07 00:14:49;;;;;;;3.63;1.42;;;17.60;73.50;;;;;;6215681;23;20004;-68
2023/02/07 00:17:15;;;;;;;3.47;1.38;;;17.50;73.50;;;;;;6215748;23;20340;-68
2023/02/07 00:19:40;;;;;;;3.05;1.48;;;17.50;73.50;;;;;;6189279;23;20433;-68
2023/02/07 00:22:06;;;;;;;3.13;1.50;;;17.50;73.50;;;;;;6215695;23;20007;-68
2023/02/07 00:24:32;;;;;;;3.33;1.73;;;17.50;73.60;;;;;;6215541;23;20008;-68
2023/02/07 00:26:57;;;;;;;2.13;1.55;;;17.50;73.70;;;;;;6214016;23;20020;-68
2023/02/07 00:29:23;;;;;;;1.95;1.40;;;17.40;73.70;;;;;;6215649;23;20480;-68
2023/02/07 00:31:49;;;;;;;2.58;1.10;;;17.40;73.70;;;;;;6215565;23;20051;-68
2023/02/07 00:34:14;;;;;;;2.80;1.50;;;17.40;74.70;;;;;;6215450;23;19996;-68
2023/02/07 00:36:40;;;;;;;3.67;1.73;;;17.30;73.70;;;;;;6214160;23;20004;-68
2023/02/07 00:39:09;;;;;;;1.77;1.00;;;17.30;73.70;;;;;;6188971;23;20091;-68
2023/02/07 00:41:35;;;;;;;2.78;1.48;;;17.30;73.80;;;;;;6189688;23;20422;-68
2023/02/07 00:44:01;;;;;;;2.80;1.55;;;17.30;73.80;;;;;;6215325;23;20007;-68
2023/02/07 00:46:26;;;;;;;2.78;1.30;;;17.30;73.90;;;;;;6189118;23;20001;-68
2023/02/07 00:48:52;;;;;;;2.45;1.55;;;17.20;73.90;;;;;;6188890;23;20004;-68
2023/02/07 00:51:18;;;;;;;3.05;1.70;;;17.20;74.00;;;;;;6215215;23;20004;-68
2023/02/07 00:53:43;;;;;;;4.03;1.70;;;17.20;73.90;;;;;;6189071;23;20067;-68
2023/02/07 00:56:09;;;;;;;2.17;1.50;;;17.20;74.00;;;;;;6213811;23;20036;-68
2023/02/07 00:58:35;;;;;;;2.92;1.73;;;17.20;74.10;;;;;;6189072;23;20001;-68
2023/02/07 01:01:00;;;;;;;2.38;1.38;;;17.10;74.00;;;;;;6213871;23;20007;-67
2023/02/07 01:03:26;;;;;;;3.15;1.33;;;17.10;74.00;;;;;;6215411;23;20001;-67
2023/02/07 01:05:52;;;;;;;4.18;1.50;;;17.10;74.10;;;;;;6189037;23;20027;-68
2023/02/07 01:08:17;;;;;;;2.10;1.40;;;17.10;74.10;;;;;;6215407;23;20004;-68
2023/02/07 01:10:43;;;;;;;3.67;1.50;;;17.00;74.10;;;;;;6215056;23;20107;-68
2023/02/07 01:13:10;;;;;;;2.63;1.42;;;17.00;74.10;;;;;;6213566;23;20005;-68
2023/02/07 01:15:37;;;;;;;4.13;1.48;;;17.00;74.30;;;;;;6213814;23;19997;-68
2023/02/07 01:18:03;;;;;;;3.53;1.95;;;17.00;74.30;;;;;;6188470;23;19997;-68
2023/02/07 01:20:28;;;;;;;2.45;1.50;;;17.00;74.30;;;;;;6213780;23;20054;-68
2023/02/07 01:22:54;;;;;;;4.60;2.08;;;17.00;74.70;;;;;;6213604;23;20354;-68
2023/02/07 01:25:20;;;;;;;2.80;1.70;;;17.00;74.50;;;;;;6215031;23;20008;-68
2023/02/07 01:27:46;;;;;;;2.05;1.52;;;17.00;74.40;;;;;;6215000;23;20465;-68
2023/02/07 01:30:12;;;;;;;3.97;1.85;;;16.90;74.40;;;;;;6188610;23;20001;-68
2023/02/07 01:32:37;;;;;;;2.13;1.25;;;16.90;74.50;;;;;;6213517;23;20001;-68
2023/02/07 01:35:03;;;;;;;3.53;1.63;;;16.90;74.50;;;;;;6213489;23;20067;-68
2023/02/07 01:37:29;;;;;;;2.97;1.75;;;16.90;74.60;;;;;;6213759;23;20433;-68
2023/02/07 01:39:54;;;;;;;2.28;1.55;;;16.90;74.60;;;;;;6213360;23;20059;-68
2023/02/07 01:42:21;;;;;;;2.25;1.58;;;16.90;74.60;;;;;;6213447;23;20335;-68
2023/02/07 01:44:49;;;;;;;2.00;1.52;;;16.80;74.60;;;;;;6188528;23;20000;-68
2023/02/07 01:47:17;;;;;;;3.65;1.50;;;16.80;74.60;;;;;;6214575;23;20001;-68
2023/02/07 01:49:43;;;;;;;3.95;1.60;;;16.80;74.70;;;;;;6188851;23;19996;-68
2023/02/07 01:52:10;;;;;;;2.92;1.83;;;16.80;74.70;;;;;;6188398;23;20012;-68
2023/02/07 01:54:36;;;;;;;2.20;1.55;;;16.70;74.70;;;;;;6188648;23;20024;-68
2023/02/07 01:57:06;;;;;;;3.08;1.48;;;16.70;74.80;;;;;;6188348;23;19996;-68
2023/02/07 01:59:33;;;;;;;2.17;1.50;;;16.70;75.90;;;;;;6188394;23;20000;-68
2023/02/07 02:01:59;;;;;;;2.25;1.55;;;16.70;74.80;;;;;;6213168;23;20047;-68
2023/02/07 02:04:25;;;;;;;3.28;1.58;;;16.70;74.90;;;;;;6213450;23;20001;-68
2023/02/07 02:06:50;;;;;;;2.10;1.60;;;16.60;75.00;;;;;;6213215;23;20008;-68
2023/02/07 02:09:16;;;;;;;2.65;1.73;;;16.70;75.10;;;;;;6212425;23;20080;-68
2023/02/07 02:12:03;;;;;;;6.07;1.90;;;16.60;75.10;;;;;;6213542;23;20009;-68
2023/02/07 02:14:44;;;;;;;2.05;1.58;;;16.70;75.00;;;;;;6214048;23;20398;-68
2023/02/07 02:17:40;;;;;;;3.45;1.90;;;16.60;75.20;;;;;;6213113;23;20004;-68
2023/02/07 02:20:24;;;;;;;2.78;1.65;;;16.60;75.10;;;;;;6214787;23;20001;-68
2023/02/07 02:23:23;;;;;;;3.78;1.27;;;16.60;75.10;;;;;;6214646;23;20072;-68
2023/02/07 02:25:51;;;;;;;2.58;1.55;;;16.60;75.10;;;;;;6213062;23;20026;-69
2023/02/07 02:28:41;;;;;;;2.38;1.70;;;16.60;75.20;;;;;;6214444;23;20001;-68
2023/02/07 02:31:10;;;;;;;4.28;1.50;;;16.50;75.10;;;;;;6214310;23;20004;-68
2023/02/07 02:33:42;;;;;;;2.60;1.48;;;16.50;75.30;;;;;;6214574;23;20023;-68
2023/02/07 02:36:27;;;;;;;4.90;1.65;;;16.50;75.20;;;;;;6214575;23;20067;-68
2023/02/07 02:39:12;;;;;;;3.10;1.95;;;16.50;75.30;;;;;;6213474;23;20023;-68
2023/02/07 02:42:09;;;;;;;3.28;1.40;;;16.50;75.50;;;;;;6190618;23;20001;-68
2023/02/07 02:44:40;;;;;;;4.03;1.67;;;16.50;75.40;;;;;;6190555;23;20315;-68
2023/02/07 02:47:06;;;;;;;3.30;1.50;;;16.50;75.60;;;;;;6212875;23;20020;-68
2023/02/07 02:49:32;;;;;;;2.35;1.65;;;16.50;75.70;;;;;;6188192;23;20322;-68
2023/02/07 02:51:58;;;;;;;3.63;1.65;;;16.50;75.70;;;;;;6188133;23;20463;-68
2023/02/07 02:54:37;;;;;;;3.95;1.80;;;16.40;75.50;;;;;;6212848;23;20004;-68
2023/02/07 02:57:08;;;;;;;3.90;1.80;;;16.40;75.60;;;;;;6211873;23;20502;-68
2023/02/07 02:59:47;;;;;;;2.63;1.70;;;16.40;75.70;;;;;;6212076;23;20001;-68
2023/02/07 03:02:35;;;;;;;2.65;1.50;;;16.40;75.70;;;;;;6210950;23;20008;-68
2023/02/07 03:05:33;;;;;;;3.70;1.70;;;16.40;75.70;;;;;;6211276;23;20005;-68
2023/02/07 03:08:21;;;;;;;2.58;1.65;;;16.30;75.70;;;;;;6186541;23;20013;-68
2023/02/07 03:10:55;;;;;;;2.00;1.60;;;16.30;75.80;;;;;;6212735;23;20075;-68
2023/02/07 03:13:35;;;;;;;3.88;2.03;;;16.30;75.70;;;;;;6186597;23;20005;-68
2023/02/07 03:16:13;;;;;;;3.85;1.50;;;16.30;75.80;;;;;;6211380;23;20337;-68
2023/02/07 03:19:06;;;;;;;5.10;2.10;;;16.30;75.80;;;;;;6211338;23;19996;-68
2023/02/07 03:21:51;;;;;;;4.57;1.48;;;16.30;75.80;;;;;;6212384;23;20000;-68
2023/02/07 03:24:20;;;;;;;2.50;1.67;;;16.30;75.80;;;;;;6211491;23;20080;-68
2023/02/07 03:26:46;;;;;;;4.55;1.80;;;16.20;75.70;;;;;;6187797;23;20013;-68
2023/02/07 03:29:12;;;;;;;5.22;1.85;;;16.20;75.70;;;;;;6212824;23;20009;-68
2023/02/07 03:31:39;;;;;;;2.83;1.70;;;16.20;75.70;;;;;;6186967;23;20009;-68
2023/02/07 03:34:08;;;;;;;1.98;1.58;;;16.20;75.80;;;;;;6187291;23;19996;-68
2023/02/07 03:36:55;;;;;;;3.45;1.85;;;16.20;75.90;;;;;;6188099;23;20003;-68
2023/02/07 03:39:21;;;;;;;2.63;1.77;;;16.20;76.00;;;;;;6213048;23;20001;-68
2023/02/07 03:41:56;;;;;;;2.45;1.55;;;16.20;76.10;;;;;;6188977;23;20004;-68
2023/02/07 03:44:22;;;;;;;5.03;2.03;;;16.20;76.00;;;;;;6190079;23;20012;-68
2023/02/07 03:46:49;;;;;;;4.95;1.80;;;16.10;76.00;;;;;;6189788;23;20036;-68
2023/02/07 03:49:16;;;;;;;2.90;1.80;;;16.20;76.10;;;;;;6189715;23;20009;-68
2023/02/07 03:51:45;;;;;;;4.00;1.95;;;16.10;76.10;;;;;;6214546;23;20456;-68
2023/02/07 03:54:11;;;;;;;3.67;1.77;;;16.10;76.10;;;;;;6214679;23;19996;-68
2023/02/07 03:56:37;;;;;;;5.20;1.58;;;16.10;76.00;;;;;;6214142;23;20007;-68
2023/02/07 03:59:03;;;;;;;2.70;1.70;;;16.10;76.00;;;;;;6216050;23;20000;-68
2023/02/07 04:01:28;;;;;;;1.83;1.48;;;16.10;76.00;;;;;;6216084;23;20500;-68
2023/02/07 04:03:54;;;;;;;2.28;1.50;;;16.10;76.10;;;;;;6215922;23;20080;-68
2023/02/07 04:06:19;;;;;;;2.28;1.60;;;16.00;76.00;;;;;;6214374;23;20009;-68
2023/02/07 04:08:45;;;;;;;3.60;1.50;;;16.10;76.20;;;;;;6215966;23;20080;-68
2023/02/07 04:11:11;;;;;;;2.08;1.30;;;16.10;76.20;;;;;;6215415;23;20342;-68
2023/02/07 04:13:36;;;;;;;3.00;1.30;;;16.00;76.10;;;;;;6215703;23;20337;-68
2023/02/07 04:16:04;;;;;;;3.35;1.80;;;16.00;76.10;;;;;;6215810;23;20374;-68
2023/02/07 04:18:29;;;;;;;2.47;1.48;;;16.00;76.20;;;;;;6214362;23;20027;-68
2023/02/07 04:21:02;;;;;;;3.67;1.73;;;16.00;76.20;;;;;;6214930;23;20001;-67
2023/02/07 04:23:28;;;;;;;;;;;16.00;76.30;;;;;;6214612;23;20035;-68
2023/02/07 04:25:53;;;;;;;7.13;1.50;;;15.90;76.20;;;;;;6215362;23;19986;-68
2023/02/07 04:28:19;;;;;;;3.30;1.60;;;15.90;76.20;;;;;;6215809;23;20004;-68
2023/02/07 04:30:45;;;;;;;3.38;1.88;;;15.90;76.30;;;;;;6215628;23;20008;-67
2023/02/07 04:33:10;;;;;;;2.72;1.67;;;15.90;76.30;;;;;;6215715;23;20454;-68
2023/02/07 04:35:36;;;;;;;3.15;1.50;;;15.90;76.40;;;;;;6189158;23;20035;-68
2023/02/07 04:38:01;;;;;;;4.28;2.08;;;15.90;76.40;;;;;;6215904;23;20384;-68
2023/02/07 04:40:27;;;;;;;4.15;1.52;;;15.90;76.30;;;;;;6215309;23;20005;-68
2023/02/07 04:42:53;;;;;;;2.42;1.23;;;15.90;76.30;;;;;;6214186;23;20004;-68
2023/02/07 04:45:18;;;;;;;2.53;1.40;;;15.90;76.30;;;;;;6215430;23;20032;-68
2023/02/07 04:47:44;;;;;;;3.08;1.90;;;15.90;77.40;;;;;;6215576;23;20054;-68
2023/02/07 04:50:10;;;;;;;2.10;1.67;;;15.80;76.40;;;;;;6215466;23;20001;-68
2023/02/07 04:52:36;;;;;;;2.47;1.48;;;15.80;76.60;;;;;;6214967;23;20011;-68
2023/02/07 04:55:01;;;;;;;4.35;1.60;;;15.80;76.60;;;;;;6215468;23;19997;-68
2023/02/07 04:57:27;;;;;;;2.80;1.55;;;15.80;76.60;;;;;;6213971;23;20004;-68
2023/02/07 04:59:53;;;;;;;2.97;1.60;;;15.80;76.60;;;;;;6213937;23;20001;-68
2023/02/07 05:02:18;;;;;;;2.75;1.58;;;15.80;76.50;;;;;;6213876;23;20035;-68
2023/02/07 05:04:44;;;;;;;2.35;1.38;;;15.80;76.60;;;;;;6213907;23;20080;-68
2023/02/07 05:07:09;;;;;;;2.75;1.50;;;15.80;76.60;;;;;;6215323;23;20035;-68
2023/02/07 05:09:35;;;;;;;2.80;1.55;;;15.80;76.70;;;;;;6188755;23;20024;-68
2023/02/07 05:12:01;;;;;;;3.53;1.60;;;15.80;76.80;;;;;;6215192;23;20005;-68
2023/02/07 05:14:26;;;;;;;3.97;1.50;;;15.80;76.80;;;;;;6213478;23;20031;-68
2023/02/07 05:16:52;;;;;;;2.28;1.50;;;15.80;77.90;;;;;;6215351;23;20001;-68
2023/02/07 05:19:18;;;;;;;1.95;1.33;;;15.70;76.90;;;;;;6215209;23;19997;-68
2023/02/07 05:21:43;;;;;;;3.45;1.42;;;15.80;76.70;;;;;;6215241;23;20012;-68
2023/02/07 05:24:09;;;;;;;3.25;1.63;;;15.80;76.80;;;;;;6214808;23;20097;-68
2023/02/07 05:26:34;;;;;;;1.90;1.30;;;15.70;76.70;;;;;;6213420;23;20062;-68
2023/02/07 05:29:00;;;;;;;3.45;1.48;;;15.70;76.80;;;;;;6213870;23;20000;-68
2023/02/07 05:33:02;;;;;;;2.92;1.58;;;15.70;76.80;;;;;;6214970;23;20001;-68
2023/02/07 05:34:11;;;;;;;2.40;1.52;;;15.70;76.80;;;;;;6213620;23;20392;-68
2023/02/07 05:36:37;;;;;;;8.93;1.38;;;15.70;76.80;;;;;;6214792;23;20035;-68
2023/02/07 05:39:03;;;;;;;4.03;1.40;;;15.70;76.70;;;;;;6214931;23;19997;-68
2023/02/07 05:41:28;;;;;;;4.25;1.80;;;15.70;76.80;;;;;;6213578;23;20452;-68
2023/02/07 05:43:54;;;;;;;3.33;1.65;;;15.70;76.80;;;;;;6188444;23;20066;-68
2023/02/07 05:46:19;;;;;;;1.95;1.40;;;15.70;76.80;;;;;;6213541;23;20004;-68
2023/02/07 05:48:45;;;;;;;2.88;1.50;;;15.70;76.90;;;;;;6213468;23;20004;-68
2023/02/07 05:51:11;;;;;;;3.00;1.40;;;15.70;76.70;;;;;;6214839;23;20011;-68
2023/02/07 05:53:36;;;;;;;2.42;1.42;;;15.70;76.70;;;;;;6214591;23;20124;-68
2023/02/07 05:56:02;;;;;;;7.22;1.75;;;15.70;76.90;;;;;;6214679;23;20043;-68
2023/02/07 05:58:28;;;;;;;3.40;1.50;;;15.70;76.80;;;;;;6213397;23;20445;-68
2023/02/07 06:00:54;;;;;;;4.57;1.67;;;15.60;76.70;;;;;;6214925;23;20369;-67
2023/02/07 06:03:20;;;;;;;3.60;1.50;;;15.60;76.70;;;;;;6214654;23;20007;-67
2023/02/07 06:05:45;;;;;;;5.25;1.50;;;15.60;76.90;;;;;;6214595;23;20004;-67
2023/02/07 06:08:11;;;;;;;1.95;1.55;;;15.60;76.90;;;;;;6188288;23;20027;-67
2023/02/07 06:10:36;;;;;;;2.35;1.88;;;15.60;76.90;;;;;;6213014;23;20005;-68
2023/02/07 06:13:02;;;;;;;2.38;1.50;;;15.60;76.90;;;;;;6213341;23;20341;-67
2023/02/07 06:15:28;;;;;;;4.20;1.40;;;15.60;76.90;;;;;;6213274;23;19997;-68
2023/02/07 06:17:54;;;;;;;3.95;1.55;;;15.60;76.90;;;;;;6213172;23;20001;-68
2023/02/07 06:20:19;;;;;;;1.90;1.38;;;15.50;77.00;;;;;;6214763;23;20407;-68
2023/02/07 06:22:45;;;;;;;3.13;1.63;;;15.60;77.00;;;;;;6212999;23;20073;-68
2023/02/07 06:25:11;;;;;;;3.13;1.50;;;15.50;76.80;;;;;;6213329;23;20000;-68
2023/02/07 06:27:40;;;;;;;2.28;1.20;;;15.50;76.90;;;;;;6212966;23;20074;-68
2023/02/07 06:30:07;;;;;;;3.03;1.80;;;15.50;76.90;;;;;;6213089;23;20083;-68
2023/02/07 06:32:33;;;;;;;1.77;1.40;;;15.50;77.10;;;;;;6163242;23;20058;-68
2023/02/07 06:34:58;;;;;;;3.55;1.40;;;15.50;77.10;;;;;;6213278;23;20382;-68
2023/02/07 06:37:24;;;;;;;1.75;1.42;;;15.50;77.00;;;;;;6213159;23;20000;-68
2023/02/07 06:39:50;;;;;;;2.80;1.60;;;15.50;77.10;;;;;;6214513;23;19997;-68
2023/02/07 06:42:15;;;;;;;1.73;1.38;;;15.50;77.00;;;;;;6214745;23;20005;-68
2023/02/07 06:44:41;;;;;;;2.30;1.48;;;15.50;77.10;;;;;;6213098;23;20027;-68
2023/02/07 06:47:07;;;;;;;1.90;1.20;;;15.50;77.10;;;;;;6213146;23;20004;-68
2023/02/07 06:49:32;;;;;;;3.05;1.25;;;15.50;77.20;;;;;;6214442;23;20011;-68
2023/02/07 06:51:58;;;;;;;1.60;1.30;;;15.50;77.30;;;;;;6214381;23;20429;-68
2023/02/07 06:54:24;;;;;;;1.88;1.35;;;15.40;77.30;;;;;;6214500;23;20051;-68
2023/02/07 06:56:49;;;;;;;3.10;1.80;;;15.50;77.40;;;;;;6213114;23;20072;-68
2023/02/07 06:59:15;;;;;;;2.38;1.50;;;15.40;77.30;;;;;;6213191;23;20039;-68
2023/02/07 07:01:41;;;;;;;2.38;1.13;;;15.40;77.30;;;;;;6188026;23;20007;-68
2023/02/07 07:04:06;;;;;;;1.42;1.17;;;15.40;77.30;;;;;;6212861;23;20011;-67
2023/02/07 07:06:32;;;;;;;3.60;1.58;;;15.40;77.30;;;;;;6214242;23;20005;-68
2023/02/07 07:08:58;;;;;;;3.35;1.45;;;15.40;77.40;;;;;;6213131;23;20000;-68
2023/02/07 07:11:23;;;;;;;2.33;1.45;;;15.40;77.40;;;;;;6214333;23;20008;-68
2023/02/07 07:13:49;;;;;;;5.13;1.50;;;15.40;77.40;;;;;;6214165;23;20007;-67
2023/02/07 07:16:14;;;;;;;1.88;1.40;;;15.40;77.50;;;;;;6214248;23;20004;-68
2023/02/07 07:18:40;;;;;;;2.95;1.50;;;15.40;77.50;;;;;;6214673;23;20007;-68
2023/02/07 07:21:06;;;;;;;2.05;1.50;;;15.40;77.50;;;;;;6214728;23;20344;-68
2023/02/07 07:23:31;;;;;;;2.00;1.45;;;15.40;77.60;;;;;;6214970;23;20326;-68
2023/02/07 07:25:57;;;;;;;2.50;1.52;;;15.40;77.50;;;;;;6214639;23;20008;-68
2023/02/07 07:28:23;;;;;;;2.75;1.50;;;15.40;77.60;;;;;;6216540;23;20005;-68
2023/02/07 07:30:48;;;;;;;3.47;1.33;;;15.40;77.50;;;;;;6189713;23;20438;-68
2023/02/07 07:33:14;;;;;;;3.22;1.60;;;15.30;77.50;;;;;;6216088;23;20449;-68
2023/02/07 07:35:40;;;;;;;2.20;1.63;;;15.40;77.70;;;;;;6214710;23;19996;-68
2023/02/07 07:38:06;;;;;;;1.90;1.25;;;15.30;77.60;;;;;;6214861;23;20071;-68
2023/02/07 07:40:31;;;;;;;3.63;1.88;;;15.40;77.40;;;;;;6214626;23;20108;-68
2023/02/07 07:42:57;;;;;;;3.45;1.85;;;15.40;76.70;;;;;;6216063;23;20000;-68
2023/02/07 07:45:23;;;;;;;3.65;2.03;;;15.40;75.90;;;;;;6214001;23;20058;-68
2023/02/07 07:47:48;;;;;;;3.05;1.70;;;15.40;75.30;;;;;;6215707;23;20035;-68
2023/02/07 07:50:14;;;;;;;3.00;2.17;;;15.40;74.90;;;;;;6214621;23;20001;-68
2023/02/07 07:52:41;;;;;;;3.50;1.73;;;15.40;74.70;;;;;;6216012;23;20004;-68
2023/02/07 07:55:07;;;;;;;3.75;1.90;;;15.40;74.50;;;;;;6189909;23;20007;-68
2023/02/07 07:57:32;;;;;;;5.53;2.20;;;15.40;74.30;;;;;;6216113;23;20071;-68
2023/02/07 07:59:58;;;;;;;3.35;1.88;;;15.40;74.00;;;;;;6215991;23;20390;-68
2023/02/07 08:02:24;;;;;;;3.80;1.85;;;15.40;73.80;;;;;;6215751;23;20349;-68
2023/02/07 08:04:50;;;;;;;39.83;5.38;;;15.40;73.90;;;;;;6214262;23;20441;-68
2023/02/07 08:07:15;;;;;;;28.40;5.28;;;15.40;74.90;;;;;;6189630;23;20441;-68
2023/02/07 08:09:41;;;;;;;20.10;4.90;;;15.50;74.20;;;;;;6189476;23;20396;-70
2023/02/07 08:12:07;;;;;;;28.90;6.13;;;15.50;74.40;;;;;;6215796;23;20016;-69
2023/02/07 08:14:33;;;;;;;24.45;4.25;;;15.50;74.30;;;;;;6215470;23;20000;-69
2023/02/07 08:16:58;;;;;;;25.00;4.55;;;15.50;74.20;;;;;;6213998;23;20051;-69
2023/02/07 08:19:24;;;;;;;18.95;4.95;;;15.50;74.20;;;;;;6214700;23;19996;-69
2023/02/07 08:21:50;;;;;;;22.40;4.93;;;15.50;74.10;;;;;;6188299;23;20004;-69
2023/02/07 08:24:15;;;;;;;19.88;4.35;;;15.50;74.10;;;;;;6215786;23;20012;-69
2023/02/07 08:26:41;;;;;;;21.05;4.88;;;15.50;74.10;;;;;;6213367;23;20016;-69
2023/02/07 08:29:07;;;;;;;18.42;4.93;;;15.50;74.00;;;;;;6214275;23;20004;-69
2023/02/07 08:31:32;;;;;;;14.35;4.30;;;15.60;74.00;;;;;;6215528;23;20000;-69
2023/02/07 08:33:58;;;;;;;13.85;4.18;;;15.60;74.10;;;;;;6213836;23;20376;-69
2023/02/07 08:36:24;;;;;;;15.45;3.95;;;15.60;74.00;;;;;;6189304;23;20004;-69
2023/02/07 08:38:50;;;;;;;18.40;4.90;;;15.60;74.00;;;;;;6189127;23;19997;-69
2023/02/07 08:41:16;;;;;;;10.65;4.20;;;15.60;74.00;;;;;;6212577;23;20045;-69
2023/02/07 08:43:41;;;;;;;16.13;3.92;;;15.60;74.10;;;;;;6215513;23;20008;-69
2023/02/07 08:46:07;;;;;;;19.58;3.90;;;15.60;74.10;;;;;;6215395;23;20005;-69
2023/02/07 08:48:32;;;;;;;9.40;3.25;;;15.60;74.10;;;;;;6189000;23;20005;-69
2023/02/07 08:51:04;;;;;;;18.00;4.15;;;15.60;74.00;;;;;;6213898;23;20007;-69
2023/02/07 08:53:29;;;;;;;14.05;3.90;;;15.60;74.00;;;;;;6214083;23;19996;-69
2023/02/07 08:55:55;;;;;;;20.95;4.47;;;15.60;74.10;;;;;;6188930;23;19997;-69
2023/02/07 08:58:21;;;;;;;12.75;4.38;;;15.60;74.10;;;;;;6215000;23;20003;-69
2023/02/07 09:00:46;;;;;;;19.42;5.07;;;15.70;74.10;;;;;;6213486;23;20005;-73
2023/02/07 09:03:12;;;;;;;17.23;3.95;;;15.80;73.90;;;;;;6216094;23;20329;-72
2023/02/07 09:05:37;;;;;;;17.50;4.53;;;15.90;73.60;;;;;;6214600;23;20524;-72
2023/02/07 09:08:03;;;;;;;9.52;3.80;;;16.00;73.80;;;;;;6189523;23;20441;-72
2023/02/07 09:10:29;;;;;;;8.80;3.88;;;16.10;73.80;;;;;;6214355;23;20004;-73
2023/02/07 09:12:55;;;;;;;12.50;4.28;;;16.20;73.60;;;;;;6189452;23;19997;-75
2023/02/07 09:15:20;;;;;;;6.70;3.70;;;16.30;73.50;;;;;;6215761;23;20023;-75
2023/02/07 09:17:46;;;;;;;9.68;3.47;;;16.40;73.10;;;;;;6216068;23;20119;-73
2023/02/07 09:20:12;;;;;;;12.38;3.60;;;16.50;73.00;;;;;;6216132;23;20123;-74
2023/02/07 09:23:22;;;;;;;9.07;3.10;;;16.70;72.60;;;;;;6189344;23;20347;-74
2023/02/07 09:25:23;;;;;;;7.90;3.72;;;16.80;71.90;;;;;;6195023;23;20337;-75
2023/02/07 09:27:49;;;;;;;7.80;3.20;;;16.90;71.70;;;;;;6214047;23;20013;-75
2023/02/07 09:30:15;;;;;;;6.93;3.60;;;16.90;71.70;;;;;;6189504;23;20445;-75
2023/02/07 09:32:41;;;;;;;10.48;3.65;;;17.00;71.60;;;;;;6215615;23;20001;-74
2023/02/07 09:35:07;;;;;;;10.07;3.60;;;17.00;71.30;;;;;;6215600;23;20079;-75
2023/02/07 09:37:33;;;;;;;10.38;3.40;;;17.10;71.40;;;;;;6214228;23;20477;-74
2023/02/07 09:39:59;;;;;;;8.73;3.55;;;17.10;71.10;;;;;;6214170;23;20024;-75
2023/02/07 09:42:38;;;;;;;10.65;3.33;;;17.20;70.80;;;;;;6189426;23;20338;-75
2023/02/07 09:45:11;;;;;;;11.50;3.58;;;17.30;70.70;;;;;;6213921;23;20031;-74
2023/02/07 09:47:36;;;;;;;11.20;3.45;;;17.40;70.40;;;;;;6190469;23;20028;-74
2023/02/07 09:50:07;;;;;;;10.18;3.67;;;17.40;70.20;;;;;;6189091;23;20005;-74
2023/02/07 09:52:53;;;;;;;6.32;3.08;;;17.50;69.90;;;;;;6214288;23;20413;-73
2023/02/07 09:55:27;;;;;;;8.52;3.00;;;17.50;69.70;;;;;;6214077;23;20075;-73
2023/02/07 09:58:07;;;;;;;7.13;3.22;;;17.60;69.30;;;;;;6214146;23;20001;-74
2023/02/07 10:00:36;;;;;;;6.78;3.00;;;17.70;69.40;;;;;;6189718;23;20079;-74
2023/02/07 10:03:08;;;;;;;10.95;3.50;;;17.80;69.30;;;;;;6189228;23;20000;-73
2023/02/07 10:05:48;;;;;;;6.53;3.08;;;17.80;69.00;;;;;;6215511;23;20004;-75
2023/02/07 10:08:17;;;;;;;7.97;2.88;;;17.90;68.60;;;;;;6191002;23;20071;-72
2023/02/07 10:11:03;;;;;;;8.63;2.65;;;17.90;68.20;;;;;;6189066;23;20460;-74
2023/02/07 10:13:46;;;;;;;6.47;2.60;;;18.00;68.20;;;;;;6191814;23;20001;-73
2023/02/07 10:16:46;;;;;;;7.28;2.83;;;18.00;68.20;;;;;;6189752;23;20001;-72
2023/02/07 10:19:33;;;;;;;6.93;2.47;;;18.10;68.00;;;;;;6215526;23;20417;-73
2023/02/07 10:22:18;;;;;;;6.28;2.53;;;18.10;67.50;;;;;;6215476;23;20498;-75
2023/02/07 10:25:06;;;;;;;7.57;2.42;;;18.10;67.40;;;;;;6191237;23;20012;-73
2023/02/07 10:27:38;;;;;;;7.70;2.60;;;18.20;67.30;;;;;;6213599;23;20023;-73
2023/02/07 10:30:10;;;;;;;6.75;2.60;;;18.30;66.80;;;;;;6189087;23;20108;-72
2023/02/07 10:32:37;;;;;;;6.32;2.63;;;18.30;66.70;;;;;;6213883;23;20135;-73
2023/02/07 10:35:13;;;;;;;5.55;2.42;;;18.30;66.70;;;;;;6188842;23;19996;-73
2023/02/07 10:37:39;;;;;;;6.88;2.70;;;18.40;67.60;;;;;;6190206;23;19996;-73
2023/02/07 10:40:20;;;;;;;6.97;2.30;;;18.30;66.20;;;;;;6188669;23;20004;-75
2023/02/07 10:42:49;;;;;;;5.07;2.25;;;18.40;66.50;;;;;;6213362;23;20047;-75
2023/02/07 10:45:15;;;;;;;4.07;2.55;;;18.40;66.30;;;;;;6213896;23;20000;-75
2023/02/07 10:47:40;;;;;;;5.38;2.75;;;18.40;66.00;;;;;;6213755;23;20387;-75
2023/02/07 10:50:09;;;;;;;4.32;2.63;;;18.50;65.90;;;;;;6214947;23;19993;-72
2023/02/07 10:52:55;;;;;;;4.30;2.30;;;18.50;65.80;;;;;;6164100;23;20005;-73
2023/02/07 10:55:42;;;;;;;4.22;2.35;;;18.60;65.90;;;;;;6188994;23;20004;-72
2023/02/07 10:58:13;;;;;;;4.32;2.30;;;18.50;65.60;;;;;;6213454;23;19997;-73
2023/02/07 11:00:39;;;;;;;5.28;2.63;;;18.50;65.70;;;;;;6213704;23;20054;-74
2023/02/07 11:03:12;;;;;;;6.00;2.78;;;18.60;65.60;;;;;;6163826;23;20008;-74
2023/02/07 11:05:57;;;;;;;3.03;2.17;;;18.60;65.40;;;;;;6190137;23;20035;-74
2023/02/07 11:08:24;;;;;;;3.42;1.95;;;18.60;65.50;;;;;;6213782;23;20008;-75
2023/02/07 11:10:51;;;;;;;4.30;2.15;;;18.70;65.20;;;;;;6213276;23;20001;-72
2023/02/07 11:13:19;;;;;;;3.35;1.90;;;18.70;65.10;;;;;;6213630;23;20041;-74
2023/02/07 11:15:47;;;;;;;6.07;2.15;;;18.70;64.80;;;;;;6188857;23;20000;-73
2023/02/07 11:18:36;;;;;;;4.93;1.98;;;18.70;64.80;;;;;;6215256;23;20405;-74
2023/02/07 11:21:02;;;;;;;3.67;1.95;;;18.80;65.10;;;;;;6213706;23;20005;-74
2023/02/07 11:23:28;;;;;;;3.78;1.80;;;18.80;64.70;;;;;;6188688;23;20459;-76
2023/02/07 11:25:54;;;;;;;4.07;2.10;;;18.80;64.90;;;;;;6188085;23;20024;-75
2023/02/07 11:28:27;;;;;;;3.15;1.98;;;18.90;64.40;;;;;;6187017;23;20008;-79
2023/02/07 11:30:56;;;;;;;6.05;2.70;;;18.80;64.40;;;;;;6187796;23;20004;-67
2023/02/07 11:33:25;;;;;;;8.32;3.20;;;18.80;64.90;;;;;;6188273;23;20001;-67
2023/02/07 11:36:09;;;;;;;10.93;4.00;;;18.50;63.30;;;;;;6214092;23;20008;-67
2023/02/07 11:38:40;;;;;;;7.72;3.70;;;18.40;62.30;;;;;;6214079;23;20196;-67
2023/02/07 11:41:15;;;;;;;7.30;4.05;;;18.10;61.50;;;;;;6212600;23;20013;-68
2023/02/07 11:43:50;;;;;;;10.60;4.57;;;18.00;61.90;;;;;;6212792;23;20001;-67
2023/02/07 11:46:15;;;;;;;15.48;6.63;;;17.90;59.50;;;;;;6189164;23;20001;-67
2023/02/07 11:48:41;;;;;;;19.40;8.27;;;17.90;61.30;;;;;;6187301;23;20518;-68
2023/02/07 11:51:08;;;;;;;22.70;9.85;;;17.80;61.30;;;;;;6187078;23;20005;-67
2023/02/07 11:53:36;;;;;;;31.10;10.48;;;17.80;60.30;;;;;;6212896;23;19997;-68
2023/02/07 11:56:02;;;;;;;24.55;9.73;;;17.70;60.10;;;;;;6213613;23;19996;-68
2023/02/07 11:58:30;;;;;;;24.98;9.15;;;17.60;60.00;;;;;;6187588;23;20003;-68
2023/02/07 12:00:56;;;;;;;22.17;7.93;;;17.50;59.30;;;;;;6212424;23;20384;-67
2023/02/07 12:03:26;;;;;;;23.45;8.10;;;17.50;60.10;;;;;;6215621;23;20095;-68
2023/02/07 12:05:57;;;;;;;19.25;7.88;;;17.40;61.70;;;;;;6189357;23;20005;-68
2023/02/07 12:08:24;;;;;;;15.55;6.97;;;17.40;62.00;;;;;;6214190;23;20032;-67
2023/02/07 12:11:09;;;;;;;16.02;5.90;;;17.40;59.20;;;;;;6188651;23;20005;-68
2023/02/07 12:13:49;;;;;;;15.00;5.80;;;17.20;58.50;;;;;;6190053;23;20004;-67
2023/02/07 12:16:19;;;;;;;12.50;5.30;;;17.20;58.30;;;;;;6191216;23;20007;-68
2023/02/07 12:18:47;;;;;;;14.70;5.35;;;17.10;60.50;;;;;;6214236;23;20004;-67
2023/02/07 12:21:22;;;;;;;12.80;4.30;;;17.10;59.40;;;;;;6189608;23;20088;-68
2023/02/07 12:23:51;;;;;;;11.60;4.35;;;17.10;60.10;;;;;;6189760;23;20011;-68
2023/02/07 12:26:31;;;;;;;7.38;3.90;;;17.10;60.10;;;;;;6213741;23;20013;-68
2023/02/07 12:29:14;;;;;;;10.98;4.03;;;17.00;58.50;;;;;;6190006;23;20012;-72
2023/02/07 12:31:48;;;;;;;9.88;4.25;;;17.00;58.90;;;;;;6213901;23;20008;-76
2023/02/07 12:34:27;;;;;;;9.40;3.72;;;17.20;61.30;;;;;;6215286;23;20433;-76
2023/02/07 12:37:10;;;;;;;9.60;3.30;;;17.50;61.20;;;;;;6213726;23;19996;-73
2023/02/07 12:39:41;;;;;;;6.60;2.92;;;17.70;61.40;;;;;;6191287;23;20005;-75
2023/02/07 12:42:39;;;;;;;10.27;3.58;;;17.80;61.50;;;;;;6188962;23;20009;-73
2023/02/07 12:45:06;;;;;;;5.72;2.97;;;17.90;61.70;;;;;;6212346;23;20353;-68
2023/02/07 12:47:45;;;;;;;8.15;3.05;;;17.90;61.70;;;;;;6188614;23;20035;-68
2023/02/07 12:50:23;;;;;;;5.85;2.65;;;17.90;62.00;;;;;;6213337;23;20013;-68
2023/02/07 12:53:13;;;;;;;5.13;2.80;;;17.90;62.20;;;;;;6214287;23;20008;-68
2023/02/07 12:56:17;;;;;;;5.45;2.80;;;17.90;62.30;;;;;;6216384;23;20047;-68